メインページ
METAR-TAF:

METAR-TAF

空港 :

シンガポール, シンガポール

シンガポール・チャンギ国際空港

緯度: 01-22N, 経度: 103-59E, 海抜: 5m

現時点の気象観測

当レポートは39分前の23:00(UTC)に作成
西/北西の風 2kt
気温 25°C
湿度 89%
気圧 1010 hPa
視程10km以上
高度1800ftの雲はほとんどない
高度6000ftの雲は散在している
高度15000ftの千切れ雲あり

METAR: WSSS 232300Z 30002KT 9999 FEW018 SCT060 BKN150 25/23 Q1010 NOSIG

時間: 07:39 (23:39 UTC)

予報

当レポートは6時間39分前の17:00(UTC)に作成
予報は23日の 18時(UTC)から 25日の 00時(UTC)まで有効
の風 9kt
視程10km以上
高度1800ftの雲はほとんどない, 積乱雲.
高度2000ftの雲は散在している
23日の 18時(UTC)から 23日の 20時(UTC)まで一時的に
西の風 15kt、最大25ktの突風を伴う
視程: 3000m
高度1200ftの雲はほとんどない, 積乱雲.
高度1500ftの千切れ雲あり
激しい雷雨, 雨
24日の 02時(UTC)から 24日の 06時(UTC)まで一時的に
視程: 3000m
高度1200ftの雲はほとんどない, 積乱雲.
高度1500ftの千切れ雲あり
激しい雷雨, 雨

TAF: WSSS 231700Z 2318/2500 18009KT 9999 FEW018CB SCT020 TEMPO 2318/2320 27015G25KT 3000 TSRA FEW012CB BKN015 TEMPO 2402/2406 3000 TSRA FEW012CB BKN015

4,000以上の空港の気象観測と天気予報(METAR報とTAF報)

利用可能な観測所は地図上に黄色い丸と赤い丸で示す。

丸の上にカーソルを重ねると観測所名を参照できる。

次にクリックすると気象観測と天気予報を参照できる。

マップの切り替え:黒色「×」印の緑ボタンをクリックして拡大、「-」印の緑ボタンをクリックして縮小、緑色の三角印をクリックして隣りの地図に切り替え


METAR-TAF: